Time;durP1;ratioP1;P1;durP2;ratioP2;P2;SDS_P1;SDS_P2;PMS_P1;PMS_P2;Temp;Humidity;BMP_temperature;BMP_pressure;BME280_temperature;BME280_humidity;BME280_pressure;Samples;Min_cycle;Max_cycle;Signal;HPM_P1;HPM_P2
2023/01/02 00:00:41;;;;;;;10.20;5.60;;;;;;;11.22;100.00;100845.44;4861871;29;21738;-88
2023/01/02 00:03:07;;;;;;;11.23;5.50;;;;;;;11.21;100.00;100841.06;4844880;29;20041;-89
2023/01/02 00:05:34;;;;;;;14.00;5.83;;;;;;;11.26;100.00;100846.69;4867975;29;20421;-88
2023/01/02 00:07:59;;;;;;;12.80;5.70;;;;;;;11.26;100.00;100835.84;4857841;29;20739;-89
2023/01/02 00:10:25;;;;;;;13.60;5.83;;;;;;;11.34;100.00;100834.72;4835673;29;20067;-88
2023/01/02 00:12:50;;;;;;;12.33;5.43;;;;;;;11.39;100.00;100837.63;4859674;29;20033;-88
2023/01/02 00:15:16;;;;;;;12.80;5.33;;;;;;;11.47;100.00;100833.84;4858423;29;20131;-89
2023/01/02 00:17:41;;;;;;;12.67;5.53;;;;;;;11.51;100.00;100845.09;4848420;29;20093;-88
2023/01/02 00:20:07;;;;;;;13.47;5.70;;;;;;;11.47;100.00;100848.22;4847993;29;20053;-88
2023/01/02 00:22:32;;;;;;;12.93;5.40;;;;;;;11.49;100.00;100831.72;4857206;29;20033;-88
2023/01/02 00:24:58;;;;;;;12.83;5.50;;;;;;;11.54;100.00;100845.47;4851577;29;20057;-89
2023/01/02 00:27:23;;;;;;;13.77;5.80;;;;;;;11.50;100.00;100844.25;4822098;29;20048;-89
2023/01/02 00:29:49;;;;;;;10.53;5.30;;;;;;;11.53;100.00;100824.81;4861153;29;20108;-88
2023/01/02 00:32:14;;;;;;;11.93;5.20;;;;;;;11.56;100.00;100837.94;4846283;29;21788;-89
2023/01/02 00:34:39;;;;;;;13.63;5.77;;;;;;;11.60;100.00;100828.31;4836249;29;20034;-88
2023/01/02 00:37:05;;;;;;;13.00;6.00;;;;;;;11.66;100.00;100797.56;4862722;29;20105;-89
2023/01/02 00:39:30;;;;;;;12.07;5.33;;;;;;;11.74;100.00;100818.19;4836307;29;20049;-88
2023/01/02 00:41:56;;;;;;;11.73;5.50;;;;;;;11.71;100.00;100818.66;4862794;29;20037;-88
2023/01/02 00:44:21;;;;;;;11.37;5.50;;;;;;;11.74;100.00;100812.78;4864009;29;20045;-88
2023/01/02 00:46:47;;;;;;;12.00;6.07;;;;;;;11.69;100.00;100809.06;4847987;29;20060;-88
2023/01/02 00:49:12;;;;;;;10.77;5.50;;;;;;;11.72;100.00;100809.47;4865728;29;20051;-88
2023/01/02 00:51:38;;;;;;;10.30;4.83;;;;;;;11.79;100.00;100814.81;4852644;29;20177;-89
2023/01/02 00:54:03;;;;;;;10.83;5.23;;;;;;;11.72;100.00;100808.59;4847150;29;20132;-88
2023/01/02 00:56:29;;;;;;;13.00;5.70;;;;;;;11.77;100.00;100811.50;4868368;29;20037;-88
2023/01/02 00:58:54;;;;;;;13.53;5.30;;;;;;;11.73;100.00;100816.53;4852691;29;20048;-88
2023/01/02 01:01:19;;;;;;;10.73;5.00;;;;;;;11.73;100.00;100799.44;4862276;29;20292;-89
2023/01/02 01:03:45;;;;;;;11.80;5.30;;;;;;;11.79;100.00;100807.50;4861066;29;22006;-88
2023/01/02 01:06:11;;;;;;;12.30;5.10;;;;;;;11.84;100.00;100790.56;4853885;29;20047;-88
2023/01/02 01:08:37;;;;;;;13.47;4.93;;;;;;;11.79;100.00;100799.38;4863229;29;20105;-88
2023/01/02 01:11:12;;;;;;;12.20;5.33;;;;;;;11.82;100.00;100792.69;4843737;29;20494;-89
2023/01/02 01:13:38;;;;;;;13.95;5.00;;;;;;;11.86;100.00;100793.03;4846107;29;20477;-88
2023/01/02 01:16:18;;;;;;;14.00;5.20;;;;;;;11.90;100.00;100794.25;4832945;29;20037;-88
2023/01/02 01:18:44;;;;;;;11.37;4.87;;;;;;;11.93;100.00;100783.81;4845630;29;20029;-88
2023/01/02 01:21:17;;;;;;;14.07;4.73;;;;;;;11.97;100.00;100792.38;4817312;29;20057;-88
2023/01/02 01:23:43;;;;;;;12.80;4.83;;;;;;;11.96;100.00;100783.38;4847016;29;20026;-89
2023/01/02 01:26:11;;;;;;;12.57;5.17;;;;;;;11.99;100.00;100795.69;4863552;29;20093;-88
2023/01/02 01:28:36;;;;;;;10.00;4.40;;;;;;;11.97;100.00;100800.53;4864461;29;20041;-89
2023/01/02 01:31:10;;;;;;;12.37;5.07;;;;;;;11.90;100.00;100795.13;4867718;29;20100;-89
2023/01/02 01:33:37;;;;;;;11.50;4.85;;;;;;;11.87;100.00;100795.56;4835204;29;20415;-89
2023/01/02 01:36:19;;;;;;;10.63;5.07;;;;;;;11.90;100.00;100800.53;4847311;29;20037;-88
2023/01/02 01:38:46;;;;;;;10.60;4.80;;;;;;;11.94;100.00;100799.06;4862549;29;20088;-88
2023/01/02 01:41:13;;;;;;;10.83;4.80;;;;;;;12.02;100.00;100797.13;4844821;29;20037;-88
2023/01/02 01:43:49;;;;;;;13.20;4.80;;;;;;;12.01;100.00;100796.31;4842150;29;20044;-89
2023/01/02 01:46:40;;;;;;;12.23;5.00;;;;;;;11.96;100.00;100801.56;4865844;29;20089;-88
2023/01/02 01:49:13;;;;;;;12.33;5.07;;;;;;;11.91;100.00;100793.22;4841835;29;20057;-88
2023/01/02 01:51:49;;;;;;;10.93;4.53;;;;;;;11.92;100.00;100803.03;4866702;29;20116;-89
2023/01/02 01:54:21;;;;;;;11.43;5.00;;;;;;;11.90;100.00;100808.69;4852868;29;20126;-88
2023/01/02 01:56:54;;;;;;;9.80;4.17;;;;;;;12.01;100.00;100800.88;4850478;29;20045;-89
2023/01/02 01:59:19;;;;;;;12.03;4.47;;;;;;;11.96;100.00;100815.97;4856589;29;20186;-89
2023/01/02 02:01:48;;;;;;;12.27;4.70;;;;;;;11.95;100.00;100808.03;4829092;29;20053;-88
2023/01/02 02:04:16;;;;;;;12.93;5.13;;;;;;;11.88;100.00;100818.91;4863879;29;20113;-88
2023/01/02 02:06:42;;;;;;;11.17;4.80;;;;;;;11.84;100.00;100806.84;4846728;29;20381;-88
2023/01/02 02:09:22;;;;;;;10.80;5.03;;;;;;;11.85;100.00;100818.56;4849854;29;20045;-88
2023/01/02 02:11:48;;;;;;;12.63;5.23;;;;;;;11.78;100.00;100811.28;4829725;29;20030;-89
2023/01/02 02:14:14;;;;;;;13.33;4.70;;;;;;;11.76;100.00;100799.81;4857458;29;20030;-89
2023/01/02 02:16:48;;;;;;;12.77;5.20;;;;;;;11.83;100.00;100816.03;4830000;29;20035;-89
2023/01/02 02:19:27;;;;;;;;;;;;;;;11.89;100.00;100812.44;4867843;29;20040;-89
2023/01/02 02:22:26;;;;;;;11.17;4.83;;;;;;;11.77;100.00;100803.34;4857444;29;20293;-88
2023/01/02 02:25:15;;;;;;;9.47;5.00;;;;;;;11.75;100.00;100809.00;4858939;29;20422;-89
2023/01/02 02:28:01;;;;;;;12.53;5.10;;;;;;;11.77;100.00;100806.06;4836085;29;20030;-88
2023/01/02 02:30:47;;;;;;;10.50;4.73;;;;;;;11.81;100.00;100818.16;4847142;29;20037;-88
2023/01/02 02:33:22;;;;;;;13.10;5.40;;;;;;;11.76;100.00;100809.84;4840796;29;20044;-88
2023/01/02 02:36:15;;;;;;;13.70;5.10;;;;;;;11.75;100.00;100810.88;4858857;29;20025;-88
2023/01/02 02:38:52;;;;;;;9.17;4.33;;;;;;;11.84;100.00;100817.69;4845617;29;20029;-88
2023/01/02 02:41:46;;;;;;;13.57;5.27;;;;;;;11.79;100.00;100810.22;4859162;29;20165;-88
2023/01/02 02:44:24;;;;;;;13.20;4.70;;;;;;;11.81;100.00;100815.44;4866771;29;20033;-88
2023/01/02 02:46:57;;;;;;;12.97;4.90;;;;;;;11.87;100.00;100817.28;4847565;29;20044;-89
2023/01/02 02:49:42;;;;;;;12.53;4.67;;;;;;;11.87;100.00;100806.44;4849818;29;20094;-88
2023/01/02 02:52:21;;;;;;;10.55;4.50;;;;;;;11.89;100.00;100814.34;4859001;29;20490;-89
2023/01/02 02:55:11;;;;;;;13.47;5.03;;;;;;;11.91;100.00;100796.78;4843237;29;20489;-89
2023/01/02 02:57:39;;;;;;;10.67;4.57;;;;;;;11.88;100.00;100815.38;4841569;29;20053;-89
2023/01/02 03:00:07;;;;;;;12.07;4.60;;;;;;;11.89;100.00;100808.91;4868386;29;20044;-88
2023/01/02 03:02:32;;;;;;;11.40;4.50;;;;;;;11.93;100.00;100810.94;4850736;29;20115;-88
2023/01/02 03:05:02;;;;;;;14.00;4.50;;;;;;;11.98;100.00;100810.31;4849277;29;20133;-88
2023/01/02 03:07:32;;;;;;;12.57;4.30;;;;;;;11.92;100.00;100800.31;4868852;29;20060;-89
2023/01/02 03:10:19;;;;;;;12.27;4.30;;;;;;;11.98;100.00;100797.56;4846258;29;20045;-88
2023/01/02 03:13:13;;;;;;;9.47;4.10;;;;;;;11.97;100.00;100805.94;4849816;29;20128;-88
2023/01/02 03:15:59;;;;;;;12.87;5.03;;;;;;;11.96;100.00;100802.38;4861095;29;20052;-89
2023/01/02 03:18:29;;;;;;;10.17;4.27;;;;;;;11.95;100.00;100798.03;4856221;29;20064;-89
2023/01/02 03:21:05;;;;;;;14.43;4.50;;;;;;;11.96;100.00;100807.00;4858744;29;20030;-89
2023/01/02 03:23:40;;;;;;;10.13;4.20;;;;;;;12.01;100.00;100806.31;4861689;29;20030;-88
2023/01/02 03:26:05;;;;;;;;;;;;;;;12.07;100.00;100806.25;4867586;29;20045;-89
2023/01/02 03:28:33;;;;;;;11.77;4.50;;;;;;;11.92;100.00;100812.00;4868167;29;19934;-89
2023/01/02 03:31:01;;;;;;;12.87;4.63;;;;;;;11.91;100.00;100799.50;4865823;29;21004;-88
2023/01/02 03:33:33;;;;;;;10.03;4.20;;;;;;;11.88;100.00;100799.09;4866260;29;20053;-88
2023/01/02 03:36:05;;;;;;;11.27;4.47;;;;;;;11.90;100.00;100789.69;4848985;29;20444;-89
2023/01/02 03:38:51;;;;;;;12.10;4.40;;;;;;;11.95;100.00;100808.88;4850390;29;20623;-88
2023/01/02 03:41:23;;;;;;;10.40;4.17;;;;;;;11.92;100.00;100806.56;4845235;29;20385;-88
2023/01/02 03:43:51;;;;;;;10.43;4.30;;;;;;;11.94;100.00;100801.78;4851801;29;20064;-88
2023/01/02 03:46:41;;;;;;;9.17;4.33;;;;;;;11.89;100.00;100807.00;4862855;29;20032;-88
2023/01/02 03:49:09;;;;;;;8.37;4.10;;;;;;;11.90;100.00;100827.69;4849066;29;20101;-88
2023/01/02 03:51:34;;;;;;;12.43;4.57;;;;;;;11.92;100.00;100822.03;4845578;29;20034;-88
2023/01/02 03:54:01;;;;;;;12.30;4.80;;;;;;;11.85;100.00;100829.41;4866660;29;20034;-88
2023/01/02 03:56:45;;;;;;;12.40;4.47;;;;;;;11.95;100.00;100836.03;4839466;29;20072;-88
2023/01/02 03:59:31;;;;;;;9.00;4.13;;;;;;;11.95;100.00;100838.75;4854446;29;20041;-88
2023/01/02 04:02:12;;;;;;;10.37;3.90;;;;;;;12.05;100.00;100829.25;4857393;29;20048;-88
2023/01/02 04:04:57;;;;;;;11.10;4.10;;;;;;;12.04;100.00;100819.47;4856960;29;20087;-88
2023/01/02 04:07:30;;;;;;;11.90;4.47;;;;;;;11.97;100.00;100830.38;4857996;29;20029;-89
2023/01/02 04:09:58;;;;;;;10.77;3.90;;;;;;;11.97;100.00;100828.50;4862309;29;20041;-88
2023/01/02 04:12:26;;;;;;;9.33;3.90;;;;;;;11.96;100.00;100832.25;4842254;29;20108;-88
2023/01/02 04:14:58;;;;;;;12.43;4.33;;;;;;;11.85;100.00;100834.84;4834999;29;20033;-88
2023/01/02 04:17:27;;;;;;;12.53;4.50;;;;;;;11.77;100.00;100827.78;4839634;29;20033;-89
2023/01/02 04:19:58;;;;;;;12.13;4.47;;;;;;;11.72;100.00;100835.75;4856903;29;20034;-88
2023/01/02 04:22:28;;;;;;;10.77;4.57;;;;;;;11.70;100.00;100838.69;4834861;29;20488;-88
2023/01/02 04:25:04;;;;;;;7.50;4.33;;;;;;;11.73;100.00;100827.38;4835755;29;20471;-88
2023/01/02 04:27:35;;;;;;;9.00;4.00;;;;;;;11.73;100.00;100834.72;4861836;29;20390;-88
2023/01/02 04:30:00;;;;;;;11.23;4.00;;;;;;;11.73;100.00;100838.25;4854230;29;21763;-88
2023/01/02 04:32:46;;;;;;;12.53;4.93;;;;;;;11.73;100.00;100842.84;4863534;29;20112;-88
2023/01/02 04:35:16;;;;;;;10.03;4.53;;;;;;;11.69;100.00;100857.91;4866655;29;20025;-88
2023/01/02 04:37:42;;;;;;;10.70;4.43;;;;;;;11.63;100.00;100841.44;4861983;29;20094;-88
2023/01/02 04:40:29;;;;;;;9.90;4.40;;;;;;;11.74;100.00;100856.19;4846675;29;20033;-88
2023/01/02 04:42:55;;;;;;;9.27;4.40;;;;;;;11.64;100.00;100848.53;4824389;29;20117;-88
2023/01/02 04:45:21;;;;;;;13.37;4.80;;;;;;;11.68;100.00;100856.25;4864381;29;20990;-88
2023/01/02 04:47:50;;;;;;;10.00;4.30;;;;;;;11.66;100.00;100860.00;4847859;29;20029;-88
2023/01/02 04:50:16;;;;;;;12.03;4.80;;;;;;;11.67;100.00;100860.84;4862341;29;20859;-87
2023/01/02 04:52:41;;;;;;;10.80;4.20;;;;;;;11.67;100.00;100863.56;4844867;29;20039;-88
2023/01/02 04:55:08;;;;;;;11.07;4.40;;;;;;;11.63;100.00;100851.47;4861591;29;20371;-88
2023/01/02 04:57:34;;;;;;;11.57;4.53;;;;;;;11.63;100.00;100857.72;4865887;29;20501;-88
2023/01/02 05:00:00;;;;;;;12.57;4.47;;;;;;;11.60;100.00;100860.03;4830858;29;20577;-88
2023/01/02 05:02:26;;;;;;;11.70;5.20;;;;;;;11.66;100.00;100860.00;4820978;29;20061;-89
2023/01/02 05:04:52;;;;;;;10.03;4.17;;;;;;;11.63;100.00;100875.91;4849223;29;20045;-88
2023/01/02 05:07:17;;;;;;;14.27;4.57;;;;;;;11.68;100.00;100861.66;4832682;29;20041;-88
2023/01/02 05:09:42;;;;;;;11.23;4.70;;;;;;;11.66;100.00;100880.88;4859586;29;20037;-88
2023/01/02 05:12:08;;;;;;;11.53;4.40;;;;;;;11.70;100.00;100884.84;4832763;29;20033;-88
2023/01/02 05:14:33;;;;;;;10.40;4.23;;;;;;;11.75;100.00;100868.72;4862201;29;20543;-88
2023/01/02 05:16:59;;;;;;;13.03;4.30;;;;;;;11.73;100.00;100873.53;4859797;29;20098;-88
2023/01/02 05:19:24;;;;;;;7.80;4.13;;;;;;;11.78;100.00;100868.28;4834185;29;20041;-88
2023/01/02 05:24:33;;;;;;;9.17;4.13;;;;;;;11.77;100.00;100879.38;4849026;29;20541;-88
2023/01/02 05:26:58;;;;;;;7.77;3.77;;;;;;;11.82;100.00;100885.78;4847977;29;20298;-88
2023/01/02 05:29:24;;;;;;;8.70;3.80;;;;;;;11.83;100.00;100886.63;4867136;29;20045;-88
2023/01/02 05:31:49;;;;;;;10.47;4.23;;;;;;;11.85;100.00;100889.13;4833329;29;20553;-88
2023/01/02 05:34:15;;;;;;;8.23;3.93;;;;;;;11.84;100.00;100891.00;4859064;29;20501;-89
2023/01/02 05:36:41;;;;;;;8.37;3.90;;;;;;;11.86;100.00;100890.78;4861087;29;20033;-88
2023/01/02 05:39:08;;;;;;;10.23;4.00;;;;;;;11.84;100.00;100891.00;4860743;29;20064;-88
2023/01/02 05:41:33;;;;;;;12.80;3.83;;;;;;;11.87;100.00;100901.44;4831389;29;20093;-88
2023/01/02 05:43:59;;;;;;;8.07;3.90;;;;;;;11.88;100.00;100888.69;4844688;29;20050;-88
2023/01/02 05:46:24;;;;;;;9.90;3.83;;;;;;;11.86;100.00;100928.78;4848044;29;20085;-88
2023/01/02 05:48:49;;;;;;;8.33;3.77;;;;;;;11.89;100.00;100915.63;4837029;29;20045;-88
2023/01/02 05:51:16;;;;;;;10.73;3.57;;;;;;;11.91;100.00;100916.25;4849033;29;21721;-89
2023/01/02 05:53:42;;;;;;;10.27;4.00;;;;;;;11.85;100.00;100922.53;4861354;29;20021;-88
2023/01/02 05:56:13;;;;;;;7.40;3.87;;;;;;;11.89;100.00;100922.94;4850292;29;20393;-88
2023/01/02 05:58:40;;;;;;;7.77;3.83;;;;;;;11.93;100.00;100925.00;4859590;29;20057;-88
2023/01/02 06:01:14;;;;;;;8.60;3.33;;;;;;;11.94;100.00;100932.13;4844682;29;20034;-88
2023/01/02 06:03:44;;;;;;;9.25;3.85;;;;;;;11.98;100.00;100927.06;4858711;29;20033;-88
2023/01/02 06:06:10;;;;;;;9.70;3.53;;;;;;;11.90;100.00;100939.00;4845528;29;20385;-88
2023/01/02 06:08:36;;;;;;;10.13;3.67;;;;;;;11.92;100.00;100936.91;4843977;29;20037;-88
2023/01/02 06:11:03;;;;;;;8.37;3.50;;;;;;;11.95;100.00;100928.38;4860649;29;20037;-88
2023/01/02 06:13:29;;;;;;;8.20;3.37;;;;;;;11.88;100.00;100937.56;4858575;29;20041;-88
2023/01/02 06:15:56;;;;;;;12.37;3.70;;;;;;;11.77;100.00;100945.34;4863796;29;20037;-88
2023/01/02 06:18:22;;;;;;;7.60;3.43;;;;;;;11.82;100.00;100934.66;4851940;29;20394;-88
2023/01/02 06:20:47;;;;;;;5.77;3.07;;;;;;;11.81;100.00;100943.03;4864234;29;20508;-88
2023/01/02 06:23:13;;;;;;;5.73;3.30;;;;;;;11.71;100.00;100942.66;4864159;29;20033;-88
2023/01/02 06:25:39;;;;;;;6.63;3.40;;;;;;;11.70;100.00;100949.16;4865600;29;20029;-88
2023/01/02 06:28:04;;;;;;;9.93;4.13;;;;;;;11.60;100.00;100953.16;4845732;29;21796;-88
2023/01/02 06:30:30;;;;;;;7.80;3.73;;;;;;;11.54;100.00;100943.16;4817259;29;20072;-89
2023/01/02 06:32:56;;;;;;;12.33;4.57;;;;;;;11.45;100.00;100977.00;4853019;29;20037;-88
2023/01/02 06:35:21;;;;;;;7.70;3.47;;;;;;;11.27;100.00;101030.09;4851266;29;20026;-88
2023/01/02 06:37:47;;;;;;;2.50;2.00;;;;;;;10.92;100.00;101029.47;4863436;29;20370;-88
2023/01/02 06:40:12;;;;;;;1.77;1.10;;;;;;;10.60;100.00;101029.28;4835145;29;20600;-89
2023/01/02 06:42:38;;;;;;;1.40;1.03;;;;;;;10.42;100.00;101029.91;4845076;29;20068;-89
2023/01/02 06:45:04;;;;;;;0.73;0.73;;;;;;;10.23;100.00;101043.16;4838671;29;20078;-85
2023/01/02 06:47:29;;;;;;;1.93;0.83;;;;;;;10.08;100.00;101047.91;4846758;29;20086;-85
2023/01/02 06:49:54;;;;;;;0.83;0.83;;;;;;;10.00;100.00;101051.63;4846970;29;20037;-85
2023/01/02 06:52:21;;;;;;;2.20;0.90;;;;;;;9.90;100.00;101065.53;4845812;29;20085;-85
2023/01/02 06:54:47;;;;;;;0.90;0.90;;;;;;;9.79;100.00;101071.50;4846175;29;20064;-85
2023/01/02 06:57:12;;;;;;;1.17;0.60;;;;;;;9.69;100.00;101082.72;4838494;29;20069;-85
2023/01/02 06:59:37;;;;;;;1.70;0.90;;;;;;;9.62;100.00;101096.19;4866918;29;20044;-85
2023/01/02 07:02:03;;;;;;;0.90;0.70;;;;;;;9.54;100.00;101088.25;4812163;29;20483;-85
2023/01/02 07:04:28;;;;;;;1.00;1.00;;;;;;;9.47;100.00;101090.09;4860410;29;20037;-84
2023/01/02 07:06:53;;;;;;;0.77;0.73;;;;;;;9.41;100.00;101101.69;4862517;29;20043;-84
2023/01/02 07:09:19;;;;;;;1.10;1.00;;;;;;;9.34;100.00;101106.22;4860147;29;20034;-84
2023/01/02 07:11:44;;;;;;;1.60;1.57;;;;;;;9.32;100.00;101132.63;4834186;29;20061;-84
2023/01/02 07:14:10;;;;;;;2.23;2.13;;;;;;;9.26;100.00;101126.97;4845668;29;20077;-85
2023/01/02 07:16:35;;;;;;;3.40;3.20;;;;;;;9.20;100.00;101121.50;4846085;29;20041;-84
2023/01/02 07:19:00;;;;;;;3.80;3.50;;;;;;;9.18;100.00;101134.38;4833923;29;20042;-84
2023/01/02 07:21:26;;;;;;;3.37;3.17;;;;;;;9.12;100.00;101142.25;4846580;29;21168;-84
2023/01/02 07:23:51;;;;;;;4.27;3.87;;;;;;;9.07;100.00;101147.41;4864839;29;20033;-84
2023/01/02 07:26:17;;;;;;;4.10;3.80;;;;;;;9.07;100.00;101160.06;4861046;29;20036;-84
2023/01/02 07:28:42;;;;;;;3.67;3.47;;;;;;;9.03;100.00;101150.69;4858707;29;20038;-84
2023/01/02 07:31:12;;;;;;;3.80;3.40;;;;;;;9.00;100.00;101173.53;4840364;29;20061;-84
2023/01/02 07:33:37;;;;;;;3.13;2.93;;;;;;;9.00;100.00;101180.81;4847136;29;20037;-84
2023/01/02 07:36:06;;;;;;;3.30;3.10;;;;;;;8.98;100.00;101181.00;4815880;29;20040;-84
2023/01/02 07:38:31;;;;;;;3.27;3.07;;;;;;;8.98;100.00;101186.41;4857692;29;20070;-84
2023/01/02 07:40:57;;;;;;;3.77;3.47;;;;;;;8.98;100.00;101191.81;4856493;29;20164;-84
2023/01/02 07:43:23;;;;;;;4.27;3.90;;;;;;;8.98;100.00;101193.69;4839178;29;20093;-84
2023/01/02 07:45:49;;;;;;;4.10;3.80;;;;;;;8.94;100.00;101204.03;4839824;29;20045;-84
2023/01/02 07:48:14;;;;;;;4.53;3.97;;;;;;;8.94;100.00;101204.84;4862962;29;20161;-84
2023/01/02 07:50:40;;;;;;;4.20;3.87;;;;;;;8.91;100.00;101209.84;4859855;29;20041;-84
2023/01/02 07:53:05;;;;;;;4.67;4.27;;;;;;;8.88;100.00;101218.31;4817653;29;20514;-84
2023/01/02 07:55:31;;;;;;;4.77;4.37;;;;;;;8.88;100.00;101227.25;4845511;29;20421;-84
2023/01/02 07:57:57;;;;;;;4.43;4.03;;;;;;;8.88;100.00;101232.66;4841155;29;20057;-84
2023/01/02 08:00:22;;;;;;;4.30;3.90;;;;;;;8.91;100.00;101240.38;4862316;29;20033;-84
2023/01/02 08:02:48;;;;;;;4.00;3.70;;;;;;;8.87;100.00;101254.47;4864566;29;20029;-84
2023/01/02 08:05:15;;;;;;;4.60;3.87;;;;;;;8.89;100.00;101252.41;4863776;29;20165;-84
2023/01/02 08:07:41;;;;;;;4.13;3.83;;;;;;;8.92;100.00;101255.59;4852439;29;20036;-84
2023/01/02 08:10:07;;;;;;;4.10;3.70;;;;;;;8.89;100.00;101264.03;4840873;29;20041;-84
2023/01/02 08:12:32;;;;;;;4.60;4.20;;;;;;;8.90;100.00;101268.44;4844945;29;20037;-84
2023/01/02 08:14:58;;;;;;;4.27;3.80;;;;;;;8.88;100.00;101275.91;4816103;29;20509;-84
2023/01/02 08:17:23;;;;;;;4.30;3.90;;;;;;;8.90;100.00;101290.06;4844990;29;20036;-84
2023/01/02 08:19:48;;;;;;;4.23;3.83;;;;;;;8.89;100.00;101291.06;4825881;29;20446;-84
2023/01/02 08:22:14;;;;;;;4.73;4.27;;;;;;;8.87;100.00;101295.00;4861531;29;20033;-84
2023/01/02 08:24:39;;;;;;;4.30;3.90;;;;;;;8.84;100.00;101295.38;4824832;29;20033;-84
2023/01/02 08:27:04;;;;;;;4.60;4.20;;;;;;;8.79;100.00;101309.47;4843937;29;20113;-84
2023/01/02 08:29:30;;;;;;;5.00;4.20;;;;;;;8.76;100.00;101307.16;4864631;29;20085;-88
2023/01/02 08:31:59;;;;;;;4.60;4.10;;;;;;;8.74;100.00;101309.19;4866509;29;20052;-88
2023/01/02 08:34:24;;;;;;;4.60;4.20;;;;;;;8.71;100.00;101325.78;4836793;29;20026;-88
2023/01/02 08:36:50;;;;;;;4.83;4.30;;;;;;;8.68;100.00;101318.88;4849345;29;20386;-88
2023/01/02 08:39:16;;;;;;;4.90;4.40;;;;;;;8.69;100.00;101331.38;4828545;29;20048;-87
2023/01/02 08:41:41;;;;;;;4.53;4.13;;;;;;;8.64;100.00;101330.25;4861741;29;20041;-88
2023/01/02 08:44:07;;;;;;;5.00;3.97;;;;;;;8.64;100.00;101332.97;4823723;29;20133;-88
2023/01/02 08:46:34;;;;;;;4.43;4.03;;;;;;;8.61;100.00;101326.06;4842089;29;20037;-88
2023/01/02 08:48:59;;;;;;;4.70;4.07;;;;;;;8.61;100.00;101340.41;4859287;29;20040;-88
2023/01/02 08:51:25;;;;;;;4.40;4.00;;;;;;;8.60;100.00;101360.31;4861422;29;20033;-88
2023/01/02 08:53:51;;;;;;;4.33;3.63;;;;;;;8.61;100.00;101344.97;4835960;29;20065;-88
2023/01/02 08:56:22;;;;;;;4.80;3.83;;;;;;;8.59;100.00;101350.56;4859548;29;20490;-89
2023/01/02 08:58:52;;;;;;;5.17;4.53;;;;;;;8.58;100.00;101356.13;4865181;29;20037;-88
2023/01/02 09:01:18;;;;;;;3.70;3.40;;;;;;;8.56;100.00;101353.63;4865688;29;20034;-88
2023/01/02 09:03:43;;;;;;;5.43;4.00;;;;;;;8.59;100.00;101372.19;4830347;29;20518;-88
2023/01/02 09:06:08;;;;;;;4.30;3.90;;;;;;;8.57;100.00;101370.69;4858216;29;20104;-88
2023/01/02 09:08:34;;;;;;;4.80;4.40;;;;;;;8.55;100.00;101365.44;4860460;29;20116;-89
2023/01/02 09:11:09;;;;;;;4.43;4.03;;;;;;;8.56;100.00;101374.41;4864038;29;21016;-89
2023/01/02 09:13:34;;;;;;;4.80;4.40;;;;;;;8.53;100.00;101370.19;4863172;29;20041;-89
2023/01/02 09:16:00;;;;;;;5.70;5.10;;;;;;;8.58;100.00;101386.69;4845525;29;20029;-88
2023/01/02 09:18:25;;;;;;;7.43;5.10;;;;;;;8.59;100.00;101390.22;4832921;29;20033;-88
2023/01/02 09:20:50;;;;;;;6.87;5.30;;;;;;;8.60;100.00;101398.13;4845765;29;20041;-88
2023/01/02 09:23:16;;;;;;;7.53;5.70;;;;;;;8.57;100.00;101403.91;4834298;29;20037;-88
2023/01/02 09:25:41;;;;;;;6.63;5.67;;;;;;;8.60;100.00;101410.81;4862134;29;20034;-89
2023/01/02 09:28:06;;;;;;;6.67;5.97;;;;;;;8.56;100.00;101412.22;4859736;29;20156;-89
2023/01/02 09:30:32;;;;;;;8.10;5.90;;;;;;;8.55;100.00;101424.03;4863568;29;20037;-88
2023/01/02 09:32:57;;;;;;;7.77;5.50;;;;;;;8.55;100.00;101427.56;4849247;29;20049;-88
2023/01/02 09:35:22;;;;;;;10.13;5.67;;;;;;;8.54;100.00;101436.72;4865465;29;20040;-88
2023/01/02 09:37:51;;;;;;;6.87;5.20;;;;;;;8.50;100.00;101440.81;4844628;29;20196;-88
2023/01/02 09:40:16;;;;;;;9.00;5.67;;;;;;;8.51;100.00;101436.22;4862521;29;20040;-88
2023/01/02 09:42:43;;;;;;;9.13;5.40;;;;;;;8.52;100.00;101435.22;4858878;29;20474;-88
2023/01/02 09:45:10;;;;;;;8.17;5.07;;;;;;;8.52;100.00;101438.75;4850062;29;20124;-88
2023/01/02 09:47:40;;;;;;;6.63;4.93;;;;;;;8.48;100.00;101461.75;4862264;29;20017;-88
2023/01/02 09:50:13;;;;;;;6.87;4.70;;;;;;;8.53;100.00;101451.22;4845588;29;20041;-88
2023/01/02 09:52:52;;;;;;;6.93;4.43;;;;;;;8.54;100.00;101452.06;4864245;29;20026;-88
2023/01/02 09:55:24;;;;;;;9.50;5.40;;;;;;;8.54;100.00;101458.31;4858896;29;20113;-88
2023/01/02 09:58:05;;;;;;;6.80;4.63;;;;;;;8.54;100.00;101474.53;4863802;29;20049;-88
2023/01/02 10:00:34;;;;;;;10.00;4.90;;;;;;;8.54;100.00;101469.13;4863793;29;20025;-88
2023/01/02 10:03:20;;;;;;;6.53;4.60;;;;;;;8.56;100.00;101468.94;4848577;29;20041;-88
2023/01/02 10:06:07;;;;;;;6.87;4.60;;;;;;;8.56;100.00;101466.22;4842403;29;20037;-88
2023/01/02 10:08:50;;;;;;;10.03;4.50;;;;;;;8.52;100.00;101465.75;4857412;29;20102;-88
2023/01/02 10:11:35;;;;;;;6.37;4.20;;;;;;;8.58;100.00;101475.84;4857036;29;20034;-88
2023/01/02 10:14:24;;;;;;;7.18;4.20;;;;;;;8.56;100.00;101477.88;4854350;29;20038;-88
2023/01/02 10:16:55;;;;;;;7.07;3.70;;;;;;;8.49;100.00;101474.22;4859233;29;20089;-88
2023/01/02 10:19:42;;;;;;;7.43;3.70;;;;;;;8.53;100.00;101472.84;4854364;29;20042;-88
2023/01/02 10:22:14;;;;;;;6.60;3.80;;;;;;;8.51;100.00;101482.97;4849644;29;20057;-88
2023/01/02 10:24:58;;;;;;;6.80;3.83;;;;;;;8.55;100.00;101481.59;4848431;29;21764;-88
2023/01/02 10:27:31;;;;;;;9.03;4.27;;;;;;;8.52;100.00;101479.25;4852963;29;20040;-88
2023/01/02 10:30:03;;;;;;;9.70;4.13;;;;;;;8.58;100.00;101480.38;4837075;29;20427;-88
2023/01/02 10:32:31;;;;;;;8.17;4.33;;;;;;;8.63;100.00;101471.75;4854643;29;20029;-88
2023/01/02 10:35:02;;;;;;;8.67;4.77;;;;;;;8.65;100.00;101480.50;4834878;29;20031;-89
2023/01/02 10:37:28;;;;;;;8.03;5.03;;;;;;;8.64;100.00;101478.84;4851014;29;20386;-89
2023/01/02 10:39:54;;;;;;;6.77;4.80;;;;;;;8.63;100.00;101483.38;4854820;29;20057;-88
2023/01/02 10:42:20;;;;;;;10.87;5.53;;;;;;;8.59;100.00;101488.31;4819980;29;20029;-90
2023/01/02 10:44:46;;;;;;;7.70;5.00;;;;;;;8.59;100.00;101499.13;4805888;29;20550;-89
2023/01/02 10:47:33;;;;;;;9.57;5.10;;;;;;;8.60;100.00;101505.38;4843135;29;20033;-89
2023/01/02 10:50:00;;;;;;;8.07;5.70;;;;;;;8.63;100.00;101504.16;4855679;29;20049;-89
2023/01/02 10:52:34;;;;;;;10.67;5.87;;;;;;;8.64;100.00;101508.56;4864996;29;20442;-89
2023/01/02 10:55:01;;;;;;;8.00;5.30;;;;;;;8.66;100.00;101495.69;4863181;29;20042;-89
2023/01/02 10:57:39;;;;;;;8.50;5.33;;;;;;;8.68;100.00;101504.47;4868090;29;20528;-88
2023/01/02 11:00:24;;;;;;;7.67;5.40;;;;;;;8.66;100.00;101506.50;4855572;29;20057;-89
2023/01/02 11:02:52;;;;;;;8.53;5.80;;;;;;;8.64;100.00;101495.88;4863090;29;20041;-89
2023/01/02 11:05:21;;;;;;;9.80;5.90;;;;;;;8.63;100.00;101507.69;4864171;29;20040;-88
2023/01/02 11:07:48;;;;;;;9.93;6.10;;;;;;;8.69;100.00;101508.81;4865654;29;20058;-88
2023/01/02 11:10:41;;;;;;;8.17;5.93;;;;;;;8.74;100.00;101518.06;4842745;29;20113;-89
2023/01/02 11:13:20;;;;;;;11.13;6.73;;;;;;;8.76;100.00;101518.72;4857929;29;20101;-88
2023/01/02 11:15:55;;;;;;;12.50;7.23;;;;;;;8.77;100.00;101531.22;4817558;29;20034;-89
2023/01/02 11:18:27;;;;;;;12.10;6.95;;;;;;;8.79;100.00;101534.56;4847183;29;20029;-89
2023/01/02 11:20:58;;;;;;;10.30;7.70;;;;;;;8.83;100.00;101528.81;4852180;29;20514;-89
2023/01/02 11:23:25;;;;;;;12.20;7.47;;;;;;;8.81;100.00;101533.53;4867331;29;20112;-89
2023/01/02 11:25:52;;;;;;;11.67;7.33;;;;;;;8.87;100.00;101539.06;4864783;29;20125;-89
2023/01/02 11:28:25;;;;;;;12.90;8.23;;;;;;;8.87;100.00;101536.34;4845747;29;20037;-88
2023/01/02 11:31:02;;;;;;;12.07;7.67;;;;;;;8.88;100.00;101534.47;4863077;29;20032;-89